createdAt,value
2022-10-29T00:00:23.339Z,89
2022-10-29T00:01:28.027Z,89
2022-10-29T00:02:32.558Z,88
2022-10-29T00:03:37.071Z,88
2022-10-29T00:04:41.802Z,88
2022-10-29T00:05:46.300Z,88
2022-10-29T00:07:00.916Z,88
2022-10-29T00:08:04.989Z,88
2022-10-29T00:09:09.132Z,88
2022-10-29T00:10:13.651Z,89
2022-10-29T00:11:17.884Z,89
2022-10-29T00:12:22.441Z,89
2022-10-29T00:13:26.984Z,89
2022-10-29T00:14:31.185Z,89
2022-10-29T00:15:35.710Z,88
2022-10-29T00:16:43.107Z,88
2022-10-29T00:17:47.411Z,89
2022-10-29T00:18:51.916Z,89
2022-10-29T00:19:56.195Z,89
2022-10-29T00:21:00.676Z,88
2022-10-29T00:22:05.491Z,89
2022-10-29T00:23:10.278Z,89
2022-10-29T00:24:14.787Z,89
2022-10-29T00:25:21.002Z,89
2022-10-29T00:26:25.707Z,89
2022-10-29T00:27:30.648Z,89
2022-10-29T00:28:35.009Z,89
2022-10-29T00:29:39.472Z,88
2022-10-29T00:30:43.755Z,89
2022-10-29T00:31:48.201Z,88
2022-10-29T00:32:52.963Z,89
2022-10-29T00:33:57.354Z,89
2022-10-29T00:35:01.882Z,89
2022-10-29T00:36:06.578Z,88
2022-10-29T00:37:14.108Z,88
2022-10-29T00:38:18.727Z,89
2022-10-29T00:39:23.508Z,88
2022-10-29T00:40:28.073Z,88
2022-10-29T00:41:32.576Z,88
2022-10-29T00:42:36.995Z,88
2022-10-29T00:43:41.760Z,88
2022-10-29T00:44:52.242Z,88
2022-10-29T00:45:56.760Z,88
2022-10-29T00:47:03.967Z,89
2022-10-29T00:48:18.848Z,88
2022-10-29T00:49:23.163Z,88
2022-10-29T00:50:27.355Z,88
2022-10-29T00:51:31.923Z,87
2022-10-29T00:52:36.388Z,88
2022-10-29T00:53:40.976Z,88
2022-10-29T00:54:45.420Z,88
2022-10-29T00:55:49.895Z,88
2022-10-29T00:56:54.498Z,88
2022-10-29T00:57:59.314Z,87
2022-10-29T00:59:03.568Z,88
2022-10-29T01:00:08.323Z,88
2022-10-29T01:01:13.302Z,88
2022-10-29T01:02:18.152Z,88
2022-10-29T01:03:22.427Z,88
2022-10-29T01:04:26.756Z,88
2022-10-29T01:05:31.308Z,88
2022-10-29T01:06:35.599Z,88
2022-10-29T01:07:39.703Z,88
2022-10-29T01:08:44.767Z,87
2022-10-29T01:09:49.031Z,87
2022-10-29T01:10:53.675Z,88
2022-10-29T01:12:08.750Z,88
2022-10-29T01:13:19.931Z,88
2022-10-29T01:14:29.515Z,89
2022-10-29T01:15:39.089Z,88
2022-10-29T01:16:48.697Z,88
2022-10-29T01:18:01.371Z,88
2022-10-29T01:19:11.072Z,88
2022-10-29T01:20:20.748Z,88
2022-10-29T01:21:32.864Z,88
2022-10-29T01:22:45.276Z,88
2022-10-29T01:23:59.981Z,88
2022-10-29T01:25:09.543Z,89
2022-10-29T01:26:19.287Z,88
2022-10-29T01:27:26.632Z,89
2022-10-29T01:28:41.884Z,89
2022-10-29T01:29:54.403Z,88
2022-10-29T01:31:07.056Z,88
2022-10-29T01:32:16.760Z,89
2022-10-29T01:33:26.531Z,89
2022-10-29T01:34:39.495Z,89
2022-10-29T01:35:49.245Z,88
2022-10-29T01:37:01.459Z,89
2022-10-29T01:38:11.230Z,88
2022-10-29T01:39:26.240Z,89
2022-10-29T01:40:35.631Z,89
2022-10-29T01:41:45.141Z,89
2022-10-29T01:42:57.666Z,89
2022-10-29T01:44:07.249Z,89
2022-10-29T01:45:19.832Z,89
2022-10-29T01:46:29.788Z,89
2022-10-29T01:47:44.351Z,89
2022-10-29T01:48:53.915Z,88
2022-10-29T01:49:58.552Z,89
2022-10-29T01:51:03.232Z,89
2022-10-29T01:52:10.227Z,89
2022-10-29T01:53:14.903Z,89
2022-10-29T01:54:19.451Z,89
2022-10-29T01:55:24.023Z,89
2022-10-29T01:56:31.301Z,89
2022-10-29T01:57:36.028Z,89
2022-10-29T01:58:40.248Z,89
2022-10-29T01:59:55.371Z,89
2022-10-29T02:00:49.304Z,89
2022-10-29T02:02:03.921Z,88
2022-10-29T02:03:10.892Z,88
2022-10-29T02:04:25.811Z,89
2022-10-29T02:05:40.397Z,89
2022-10-29T02:06:55.196Z,89
2022-10-29T02:08:10.107Z,89
2022-10-29T02:09:19.728Z,89
2022-10-29T02:10:29.239Z,88
2022-10-29T02:11:33.274Z,89
2022-10-29T02:12:40.431Z,89
2022-10-29T02:13:47.668Z,89
2022-10-29T02:14:54.807Z,89
2022-10-29T02:15:59.287Z,89
2022-10-29T02:17:03.565Z,89
2022-10-29T02:18:08.075Z,89
2022-10-29T02:19:12.715Z,89
2022-10-29T02:20:17.222Z,89
2022-10-29T02:21:21.759Z,89
2022-10-29T02:22:26.299Z,89
2022-10-29T02:23:31.068Z,89
2022-10-29T02:24:35.447Z,89
2022-10-29T02:25:40.094Z,89
2022-10-29T02:26:44.327Z,89
2022-10-29T02:27:48.834Z,89
2022-10-29T02:28:53.555Z,89
2022-10-29T02:29:57.924Z,89
2022-10-29T02:31:02.566Z,89
2022-10-29T02:32:07.414Z,88
2022-10-29T02:33:12.557Z,89
2022-10-29T02:34:16.798Z,89
2022-10-29T02:35:21.420Z,89
2022-10-29T02:36:25.878Z,89
2022-10-29T02:37:30.427Z,89
2022-10-29T02:38:34.564Z,88
2022-10-29T02:39:39.204Z,89
2022-10-29T02:40:43.707Z,89
2022-10-29T02:41:48.006Z,89
2022-10-29T02:42:52.602Z,88
2022-10-29T02:43:56.983Z,89
2022-10-29T02:45:01.578Z,89
2022-10-29T02:46:06.267Z,89
2022-10-29T02:47:13.300Z,89
2022-10-29T02:48:17.966Z,89
2022-10-29T02:49:22.394Z,89
2022-10-29T02:50:27.003Z,89
2022-10-29T02:51:31.651Z,89
2022-10-29T02:52:38.012Z,89
2022-10-29T02:53:42.404Z,89
2022-10-29T02:54:46.511Z,89
2022-10-29T02:55:50.990Z,89
2022-10-29T02:56:55.569Z,89
2022-10-29T02:58:00.302Z,89
2022-10-29T02:59:06.408Z,89
2022-10-29T03:00:09.507Z,89
2022-10-29T03:01:14.016Z,89
2022-10-29T03:02:18.688Z,89
2022-10-29T03:03:23.083Z,89
2022-10-29T03:04:27.658Z,89
2022-10-29T03:05:32.299Z,89
2022-10-29T03:06:36.867Z,89
2022-10-29T03:07:41.496Z,89
2022-10-29T03:08:46.097Z,89
2022-10-29T03:09:50.606Z,89
2022-10-29T03:10:54.714Z,89
2022-10-29T03:11:59.347Z,89
2022-10-29T03:13:04.124Z,89
2022-10-29T03:14:08.706Z,89
2022-10-29T03:15:13.046Z,89
2022-10-29T03:16:17.727Z,89
2022-10-29T03:17:22.179Z,89
2022-10-29T03:18:27.018Z,89
2022-10-29T03:19:31.554Z,89
2022-10-29T03:20:36.160Z,89
2022-10-29T03:21:40.578Z,89
2022-10-29T03:22:45.196Z,88
2022-10-29T03:23:49.727Z,88
2022-10-29T03:24:54.559Z,88
2022-10-29T03:25:58.911Z,89
2022-10-29T03:27:03.627Z,89
2022-10-29T03:28:08.096Z,89
2022-10-29T03:29:12.240Z,89
2022-10-29T03:30:16.816Z,89
2022-10-29T03:31:21.524Z,89
2022-10-29T03:32:26.174Z,89
2022-10-29T03:33:30.523Z,89
2022-10-29T03:34:35.111Z,89
2022-10-29T03:35:39.779Z,89
2022-10-29T03:36:44.251Z,89
2022-10-29T03:37:48.455Z,89
2022-10-29T03:38:53.122Z,89
2022-10-29T03:39:58.077Z,89
2022-10-29T03:41:02.377Z,89
2022-10-29T03:42:06.982Z,89
2022-10-29T03:43:11.623Z,89
2022-10-29T03:44:16.003Z,89
2022-10-29T03:45:20.982Z,89
2022-10-29T03:46:25.200Z,89
2022-10-29T03:47:29.787Z,89
2022-10-29T03:48:34.510Z,89
2022-10-29T03:49:39.034Z,89
2022-10-29T03:50:43.567Z,89
2022-10-29T03:51:55.790Z,89
2022-10-29T03:53:00.323Z,89
2022-10-29T03:54:04.411Z,89
2022-10-29T03:55:08.547Z,89
2022-10-29T03:56:13.329Z,89
2022-10-29T03:57:17.703Z,89
2022-10-29T03:58:22.251Z,89
2022-10-29T03:59:26.323Z,89
2022-10-29T04:00:30.392Z,89
2022-10-29T04:01:35.106Z,89
2022-10-29T04:02:40.251Z,89
2022-10-29T04:03:44.736Z,89
2022-10-29T04:04:49.353Z,89
2022-10-29T04:05:54.455Z,89
2022-10-29T04:06:59.135Z,89
2022-10-29T04:08:03.619Z,89
2022-10-29T04:09:08.306Z,89
2022-10-29T04:10:12.847Z,89
2022-10-29T04:11:17.342Z,89
2022-10-29T04:12:22.300Z,89
2022-10-29T04:13:26.614Z,89
2022-10-29T04:14:31.146Z,89
2022-10-29T04:15:35.443Z,89
2022-10-29T04:16:39.835Z,89
2022-10-29T04:17:44.463Z,89
2022-10-29T04:18:48.983Z,89
2022-10-29T04:19:53.058Z,89
2022-10-29T04:28:44.457Z,90
2022-10-29T04:29:33.362Z,89
2022-10-29T04:30:37.927Z,89
2022-10-29T04:31:42.506Z,89
2022-10-29T04:32:47.199Z,89
2022-10-29T04:33:51.922Z,89
2022-10-29T04:34:56.338Z,89
2022-10-29T04:36:00.919Z,89
2022-10-29T04:37:05.483Z,89
2022-10-29T04:38:10.208Z,89
2022-10-29T04:39:16.264Z,89
2022-10-29T04:40:19.296Z,89
2022-10-29T04:41:23.834Z,89
2022-10-29T04:42:28.452Z,89
2022-10-29T04:43:37.982Z,89
2022-10-29T04:44:42.631Z,90
2022-10-29T04:45:47.271Z,89
2022-10-29T04:46:51.796Z,89
2022-10-29T04:47:56.701Z,89
2022-10-29T04:49:01.162Z,89
2022-10-29T04:50:05.694Z,89
2022-10-29T04:51:10.078Z,88
2022-10-29T04:52:19.730Z,89
2022-10-29T04:53:23.950Z,90
2022-10-29T04:54:28.474Z,89
2022-10-29T04:55:33.121Z,89
2022-10-29T04:56:37.490Z,89
2022-10-29T04:57:42.027Z,89
2022-10-29T04:58:51.347Z,89
2022-10-29T04:59:55.911Z,89
2022-10-29T05:01:00.815Z,89
2022-10-29T05:02:05.150Z,89
2022-10-29T05:03:09.743Z,89
2022-10-29T05:04:14.190Z,89
2022-10-29T05:05:18.751Z,89
2022-10-29T05:06:23.437Z,89
2022-10-29T05:07:28.290Z,89
2022-10-29T05:08:32.560Z,89
2022-10-29T05:09:37.164Z,89
2022-10-29T05:10:41.767Z,88
2022-10-29T05:11:46.455Z,88
2022-10-29T05:12:51.073Z,88
2022-10-29T05:13:58.211Z,88
2022-10-29T05:15:02.698Z,88
2022-10-29T05:16:07.154Z,89
2022-10-29T05:17:11.776Z,89
2022-10-29T05:18:15.828Z,89
2022-10-29T05:19:20.430Z,89
2022-10-29T05:20:25.161Z,89
2022-10-29T05:21:29.706Z,89
2022-10-29T05:22:34.311Z,89
2022-10-29T05:23:38.829Z,89
2022-10-29T05:24:43.534Z,89
2022-10-29T05:25:48.104Z,89
2022-10-29T05:26:52.571Z,89
2022-10-29T05:27:57.656Z,89
2022-10-29T05:29:04.828Z,89
2022-10-29T05:30:09.505Z,89
2022-10-29T05:31:14.202Z,89
2022-10-29T05:32:18.694Z,89
2022-10-29T05:33:23.081Z,89
2022-10-29T05:34:27.691Z,89
2022-10-29T05:35:31.930Z,89
2022-10-29T05:36:36.862Z,89
2022-10-29T05:37:41.083Z,89
2022-10-29T05:38:45.530Z,90
2022-10-29T05:39:49.938Z,89
2022-10-29T05:40:57.047Z,89
2022-10-29T05:42:01.718Z,89
2022-10-29T05:43:06.097Z,89
2022-10-29T05:44:10.590Z,89
2022-10-29T05:45:14.835Z,89
2022-10-29T05:46:19.450Z,89
2022-10-29T05:47:23.922Z,89
2022-10-29T05:48:28.343Z,89
2022-10-29T05:49:32.589Z,89
2022-10-29T05:50:37.237Z,89
2022-10-29T05:51:41.722Z,89
2022-10-29T05:52:46.273Z,89
2022-10-29T05:53:58.620Z,89
2022-10-29T05:55:03.338Z,90
2022-10-29T05:56:07.710Z,90
2022-10-29T05:57:12.314Z,90
2022-10-29T05:58:16.906Z,89
2022-10-29T05:59:21.717Z,90
2022-10-29T06:00:26.114Z,89
2022-10-29T06:01:30.602Z,90
2022-10-29T06:02:35.243Z,90
2022-10-29T06:03:39.883Z,90
2022-10-29T06:04:44.457Z,89
2022-10-29T06:05:49.213Z,90
2022-10-29T06:06:53.647Z,89
2022-10-29T06:07:58.250Z,89
2022-10-29T06:09:02.302Z,89
2022-10-29T06:10:06.871Z,89
2022-10-29T06:11:11.519Z,89
2022-10-29T06:12:16.234Z,89
2022-10-29T06:13:20.522Z,89
2022-10-29T06:14:24.666Z,90
2022-10-29T06:15:29.384Z,89
2022-10-29T06:16:33.870Z,89
2022-10-29T06:17:38.582Z,89
2022-10-29T06:18:43.057Z,89
2022-10-29T06:19:47.627Z,89
2022-10-29T06:20:51.794Z,89
2022-10-29T06:21:57.913Z,88
2022-10-29T06:23:01.199Z,89
2022-10-29T06:24:05.756Z,89
2022-10-29T06:25:10.161Z,89
2022-10-29T06:26:14.861Z,89
2022-10-29T06:27:19.405Z,89
2022-10-29T06:28:23.926Z,90
2022-10-29T06:29:28.674Z,89
2022-10-29T06:30:33.261Z,89
2022-10-29T06:31:37.747Z,89
2022-10-29T06:32:42.341Z,89
2022-10-29T06:33:47.390Z,89
2022-10-29T06:34:52.438Z,89
2022-10-29T06:35:57.299Z,88
2022-10-29T06:37:01.971Z,89
2022-10-29T06:38:09.225Z,89
2022-10-29T06:39:10.909Z,89
2022-10-29T06:40:15.499Z,89
2022-10-29T06:41:20.082Z,89
2022-10-29T06:42:24.851Z,89
2022-10-29T06:43:29.201Z,88
2022-10-29T06:44:35.001Z,89
2022-10-29T06:45:39.559Z,89
2022-10-29T06:46:43.650Z,88
2022-10-29T06:47:49.758Z,88
2022-10-29T06:48:54.358Z,88
2022-10-29T06:49:59.062Z,89
2022-10-29T06:51:03.458Z,88
2022-10-29T06:52:07.551Z,88
2022-10-29T06:53:11.731Z,89
2022-10-29T06:54:16.326Z,89
2022-10-29T06:55:24.066Z,88
2022-10-29T06:56:29.958Z,89
2022-10-29T06:57:34.242Z,89
2022-10-29T06:58:38.726Z,89
2022-10-29T06:59:42.869Z,89
2022-10-29T07:00:47.830Z,89
2022-10-29T07:01:52.204Z,89
2022-10-29T07:02:57.083Z,89
2022-10-29T07:04:01.629Z,89
2022-10-29T07:05:06.426Z,88
2022-10-29T07:06:10.810Z,88
2022-10-29T07:07:15.056Z,88
2022-10-29T07:08:20.978Z,88
2022-10-29T07:09:28.413Z,89
2022-10-29T07:10:34.093Z,89
2022-10-29T07:11:38.374Z,89
2022-10-29T07:12:42.577Z,88
2022-10-29T07:13:47.421Z,89
2022-10-29T07:14:51.777Z,89
2022-10-29T07:15:56.317Z,89
2022-10-29T07:17:01.093Z,88
2022-10-29T07:18:05.423Z,88
2022-10-29T07:19:10.294Z,88
2022-10-29T07:20:14.749Z,88
2022-10-29T07:21:19.457Z,89
2022-10-29T07:22:23.866Z,88
2022-10-29T07:24:32.645Z,88
2022-10-29T07:25:37.093Z,88
2022-10-29T07:26:41.582Z,88
2022-10-29T07:27:46.395Z,88
2022-10-29T07:28:50.873Z,88
2022-10-29T07:29:55.385Z,88
2022-10-29T07:31:00.007Z,88
2022-10-29T07:32:04.755Z,88
2022-10-29T07:33:09.001Z,88
2022-10-29T07:34:13.381Z,88
2022-10-29T07:35:17.854Z,88
2022-10-29T07:36:22.510Z,88
2022-10-29T07:37:27.029Z,88
2022-10-29T07:38:31.613Z,88
2022-10-29T07:39:36.359Z,88
2022-10-29T07:40:40.778Z,88
2022-10-29T07:41:47.878Z,89
2022-10-29T07:42:52.637Z,88
2022-10-29T07:43:57.394Z,88
2022-10-29T07:45:01.579Z,88
2022-10-29T07:46:06.211Z,88
2022-10-29T07:47:10.730Z,88
2022-10-29T07:50:35.628Z,88
2022-10-29T07:51:39.749Z,87
2022-10-29T07:52:44.044Z,87
2022-10-29T08:04:15.841Z,87
2022-10-29T08:05:20.213Z,87
2022-10-29T08:06:24.841Z,86
2022-10-29T08:07:29.404Z,87
2022-10-29T08:14:07.920Z,87
2022-10-29T08:15:12.294Z,86
2022-10-29T08:16:16.786Z,87
2022-10-29T08:17:20.885Z,87
2022-10-29T08:18:25.557Z,86
2022-10-29T08:21:02.806Z,86
2022-10-29T08:22:07.257Z,86
2022-10-29T08:23:11.977Z,86
2022-10-29T08:24:16.469Z,86
2022-10-29T08:27:25.901Z,86
2022-10-29T08:28:31.814Z,86
2022-10-29T08:29:34.325Z,86
2022-10-29T08:30:53.937Z,86
2022-10-29T08:31:58.137Z,86
2022-10-29T08:33:05.062Z,86
2022-10-29T08:34:11.160Z,86
2022-10-29T08:35:13.765Z,86
2022-10-29T08:36:23.307Z,86
2022-10-29T08:37:27.766Z,86
2022-10-29T08:38:31.925Z,86
2022-10-29T08:40:38.617Z,86
2022-10-29T08:42:09.876Z,86
2022-10-29T08:43:19.406Z,86
2022-10-29T08:44:32.133Z,86
2022-10-29T08:45:41.805Z,86
2022-10-29T08:46:46.311Z,86
2022-10-29T08:49:24.665Z,86
2022-10-29T08:51:33.671Z,86
2022-10-29T08:52:48.257Z,86
2022-10-29T08:53:54.114Z,86
2022-10-29T08:55:07.626Z,86
2022-10-29T08:56:14.437Z,86
2022-10-29T08:57:24.093Z,86
2022-10-29T08:58:59.796Z,86
2022-10-29T09:00:17.920Z,85
2022-10-29T09:01:25.603Z,85
2022-10-29T09:02:29.852Z,86
2022-10-29T09:03:34.569Z,85
2022-10-29T09:09:06.412Z,85
2022-10-29T09:10:16.411Z,85
2022-10-29T09:11:29.040Z,85
2022-10-29T09:12:41.653Z,85
2022-10-29T09:13:56.573Z,85
2022-10-29T09:38:04.465Z,82
2022-10-29T09:39:33.058Z,82
2022-10-29T09:40:33.600Z,82
2022-10-29T09:41:37.913Z,82
2022-10-29T09:42:44.073Z,83
2022-10-29T09:43:48.225Z,83
2022-10-29T09:45:59.985Z,83
2022-10-29T09:58:53.822Z,83
2022-10-29T10:01:02.750Z,83
2022-10-29T10:03:09.469Z,83
2022-10-29T10:14:45.724Z,83
2022-10-29T10:16:52.361Z,83
2022-10-29T10:49:37.477Z,83
2022-10-29T10:51:44.143Z,83
2022-10-29T10:53:12.027Z,81
2022-10-29T10:56:36.829Z,79
2022-10-29T10:57:51.585Z,80
2022-10-29T10:59:01.024Z,80
2022-10-29T11:00:08.752Z,80
2022-10-29T11:01:19.164Z,79
2022-10-29T11:07:57.434Z,79
2022-10-29T11:09:15.020Z,80
2022-10-29T11:10:24.589Z,79
2022-10-29T11:11:32.073Z,78
2022-10-29T11:12:42.556Z,79
2022-10-29T11:13:52.255Z,78
2022-10-29T11:15:53.553Z,78
2022-10-29T11:24:05.631Z,78
2022-10-29T11:25:48.959Z,78
2022-10-29T11:26:56.030Z,79
2022-10-29T11:28:05.594Z,79
2022-10-29T11:29:26.936Z,78
2022-10-29T11:30:41.742Z,79
2022-10-29T11:31:51.507Z,78
2022-10-29T11:33:06.189Z,79
2022-10-29T11:34:16.011Z,78
2022-10-29T11:44:52.187Z,79
2022-10-29T11:45:58.212Z,78
2022-10-29T11:47:13.307Z,79
2022-10-29T11:48:28.346Z,79
2022-10-29T11:49:41.388Z,79
2022-10-29T11:50:57.210Z,79
2022-10-29T11:52:12.315Z,79
2022-10-29T11:53:27.127Z,78
2022-10-29T11:54:34.535Z,78
2022-10-29T11:55:49.668Z,79
2022-10-29T11:57:04.529Z,79
2022-10-29T11:58:14.178Z,79
2022-10-29T11:59:18.711Z,78
2022-10-29T12:00:23.950Z,79
2022-10-29T12:01:28.386Z,79
2022-10-29T12:02:43.792Z,79
2022-10-29T12:03:58.858Z,79
2022-10-29T12:05:07.191Z,79
2022-10-29T12:06:17.050Z,78
2022-10-29T12:07:26.695Z,78
2022-10-29T12:08:37.027Z,78
2022-10-29T12:09:47.034Z,78
2022-10-29T12:11:02.692Z,77
2022-10-29T12:12:13.722Z,77
2022-10-29T12:13:27.843Z,78
2022-10-29T12:14:37.917Z,78
2022-10-29T12:15:45.363Z,78
2022-10-29T12:17:00.763Z,79
2022-10-29T12:18:10.838Z,79
2022-10-29T12:19:23.002Z,78
2022-10-29T12:20:33.692Z,77
2022-10-29T12:21:38.948Z,77
2022-10-29T12:22:47.483Z,78
2022-10-29T12:23:57.975Z,77
2022-10-29T12:25:10.082Z,78
2022-10-29T12:26:24.755Z,78
2022-10-29T12:27:37.775Z,78
2022-10-29T12:28:47.694Z,78
2022-10-29T12:29:58.691Z,78
2022-10-29T12:31:06.739Z,78
2022-10-29T12:32:15.091Z,78
2022-10-29T12:33:24.690Z,78
2022-10-29T12:34:29.276Z,78
2022-10-29T12:35:39.411Z,78
2022-10-29T12:36:57.432Z,77
2022-10-29T12:38:10.101Z,78
2022-10-29T12:39:14.522Z,78
2022-10-29T12:40:24.430Z,78
2022-10-29T12:41:32.782Z,78
2022-10-29T12:42:38.022Z,78
2022-10-29T12:43:42.951Z,78
2022-10-29T12:44:49.562Z,78
2022-10-29T12:46:19.404Z,78
2022-10-29T12:47:12.219Z,79
2022-10-29T12:48:25.586Z,79
2022-10-29T12:49:33.302Z,79
2022-10-29T12:50:48.295Z,79
2022-10-29T12:52:03.262Z,79
2022-10-29T12:53:11.192Z,80
2022-10-29T12:54:18.163Z,80
2022-10-29T12:55:27.707Z,80
2022-10-29T12:56:31.994Z,80
2022-10-29T12:57:37.003Z,80
2022-10-29T12:58:41.847Z,80
2022-10-29T12:59:51.682Z,79
2022-10-29T13:00:56.486Z,80
2022-10-29T13:02:16.651Z,80
2022-10-29T13:03:16.324Z,80
2022-10-29T13:04:31.760Z,80
2022-10-29T13:05:38.155Z,81
2022-10-29T13:06:43.323Z,80
2022-10-29T13:07:47.847Z,80
2022-10-29T13:08:57.509Z,80
2022-10-29T13:10:01.666Z,80
2022-10-29T13:11:16.748Z,80
2022-10-29T13:12:21.399Z,79
2022-10-29T13:13:31.456Z,79
2022-10-29T13:14:35.733Z,79
2022-10-29T13:15:43.074Z,79
2022-10-29T13:16:47.953Z,79
2022-10-29T13:17:52.614Z,80
2022-10-29T13:18:57.063Z,80
2022-10-29T13:20:04.378Z,80
2022-10-29T13:21:09.345Z,80
2022-10-29T13:22:13.551Z,80
2022-10-29T13:23:18.474Z,80
2022-10-29T13:24:23.146Z,80
2022-10-29T13:25:28.186Z,81
2022-10-29T13:26:37.114Z,81
2022-10-29T13:27:52.206Z,81
2022-10-29T13:28:57.164Z,82
2022-10-29T13:30:02.117Z,81
2022-10-29T13:31:11.847Z,82
2022-10-29T13:32:16.156Z,81
2022-10-29T13:33:28.899Z,81
2022-10-29T13:34:33.075Z,81
2022-10-29T13:35:48.142Z,81
2022-10-29T13:36:57.667Z,81
2022-10-29T13:38:12.235Z,82
2022-10-29T13:39:16.818Z,82
2022-10-29T13:40:21.070Z,83
2022-10-29T13:41:34.630Z,83
2022-10-29T13:42:41.923Z,83
2022-10-29T13:43:46.635Z,83
2022-10-29T13:44:54.078Z,83
2022-10-29T13:45:58.243Z,83
2022-10-29T13:47:07.974Z,83
2022-10-29T13:48:15.391Z,84
2022-10-29T13:49:24.934Z,84
2022-10-29T13:50:34.552Z,83
2022-10-29T13:51:39.544Z,83
2022-10-29T13:52:44.897Z,84
2022-10-29T13:53:49.626Z,84
2022-10-29T13:54:54.302Z,84
2022-10-29T13:56:08.962Z,84
2022-10-29T13:57:13.283Z,84
2022-10-29T13:59:24.769Z,84
2022-10-29T14:11:29.638Z,84
2022-10-29T14:12:37.570Z,84
2022-10-29T14:13:42.478Z,84
2022-10-29T14:14:49.395Z,84
2022-10-29T14:15:59.262Z,84
2022-10-29T14:40:06.264Z,85
2022-10-29T14:42:23.069Z,85
2022-10-29T14:44:34.698Z,85
2022-10-29T15:13:09.746Z,85
2022-10-29T15:14:25.281Z,86
2022-10-29T15:15:36.734Z,86
2022-10-29T15:16:42.466Z,86
2022-10-29T15:17:45.857Z,87
2022-10-29T16:45:10.135Z,88
2022-10-29T16:46:17.362Z,88
2022-10-29T16:47:21.933Z,88
2022-10-29T16:48:26.414Z,88
2022-10-29T16:49:30.814Z,88
2022-10-29T16:55:30.733Z,88
2022-10-29T16:57:34.810Z,88
2022-10-29T16:59:41.310Z,88
2022-10-29T17:01:54.007Z,88
2022-10-29T17:04:00.621Z,88
2022-10-29T17:06:06.835Z,88
2022-10-29T18:07:42.173Z,88
2022-10-29T18:08:46.794Z,88
2022-10-29T18:09:51.285Z,89
2022-10-29T18:10:56.181Z,89
2022-10-29T18:12:08.944Z,89
2022-10-29T18:16:45.233Z,89
2022-10-29T18:17:49.542Z,89
2022-10-29T18:19:01.819Z,89
2022-10-29T18:19:59.633Z,89
2022-10-29T18:21:04.049Z,88
2022-10-29T18:22:12.097Z,89
2022-10-29T18:23:16.620Z,89
2022-10-29T18:24:21.097Z,89
2022-10-29T18:25:25.179Z,88
2022-10-29T18:26:29.317Z,89
2022-10-29T18:27:34.201Z,89
2022-10-29T18:28:38.769Z,89
2022-10-29T18:29:43.197Z,89
2022-10-29T18:30:47.658Z,89
2022-10-29T18:31:51.826Z,89
2022-10-29T18:32:58.534Z,89
2022-10-29T18:34:02.689Z,89
2022-10-29T18:35:07.402Z,89
2022-10-29T18:36:11.771Z,89
2022-10-29T18:37:16.361Z,89
2022-10-29T18:38:24.678Z,89
2022-10-29T18:39:26.753Z,89
2022-10-29T18:40:31.263Z,89
2022-10-29T18:41:38.897Z,89
2022-10-29T18:42:43.593Z,89
2022-10-29T18:43:48.030Z,89
2022-10-29T18:44:52.686Z,89
2022-10-29T18:45:57.081Z,88
2022-10-29T18:47:06.765Z,89
2022-10-29T18:48:11.406Z,89
2022-10-29T18:49:18.097Z,89
2022-10-29T18:50:22.365Z,89
2022-10-29T18:51:27.366Z,89
2022-10-29T18:52:32.170Z,89
2022-10-29T18:53:36.654Z,89
2022-10-29T18:54:48.486Z,89
2022-10-29T18:55:52.837Z,89
2022-10-29T18:56:57.389Z,89
2022-10-29T18:58:02.273Z,89
2022-10-29T18:59:07.041Z,89
2022-10-29T19:00:18.106Z,89
2022-10-29T19:01:22.811Z,89
2022-10-29T19:02:27.298Z,89
2022-10-29T19:03:31.567Z,89
2022-10-29T19:04:36.198Z,89
2022-10-29T19:05:43.177Z,89
2022-10-29T19:06:47.673Z,89
2022-10-29T19:07:51.985Z,89
2022-10-29T19:08:56.629Z,89
2022-10-29T19:10:01.213Z,89
2022-10-29T19:11:13.157Z,89
2022-10-29T19:12:18.097Z,89
2022-10-29T19:13:23.338Z,89
2022-10-29T19:14:27.801Z,89
2022-10-29T19:15:32.462Z,89
2022-10-29T19:16:57.913Z,89
2022-10-29T19:18:02.723Z,89
2022-10-29T19:19:07.352Z,89
2022-10-29T19:20:11.340Z,89
2022-10-29T19:21:15.789Z,89
2022-10-29T19:22:22.148Z,89
2022-10-29T19:23:26.594Z,89
2022-10-29T19:24:31.408Z,89
2022-10-29T19:25:38.634Z,89
2022-10-29T19:26:41.306Z,89
2022-10-29T19:27:48.274Z,89
2022-10-29T19:28:52.490Z,89
2022-10-29T19:29:56.553Z,89
2022-10-29T19:31:00.661Z,88
2022-10-29T19:32:05.521Z,89
2022-10-29T19:33:14.489Z,89
2022-10-29T19:34:19.121Z,89
2022-10-29T19:35:23.435Z,89
2022-10-29T19:36:27.858Z,89
2022-10-29T19:37:32.893Z,89
2022-10-29T19:38:41.105Z,89
2022-10-29T19:39:45.802Z,89
2022-10-29T19:40:50.229Z,88
2022-10-29T19:41:55.252Z,89
2022-10-29T19:42:59.922Z,89
2022-10-29T19:44:04.110Z,89
2022-10-29T19:45:08.760Z,89
2022-10-29T19:46:13.460Z,89
2022-10-29T19:47:18.180Z,89
2022-10-29T19:48:22.806Z,89
2022-10-29T19:49:27.229Z,89
2022-10-29T19:50:31.518Z,90
2022-10-29T19:51:35.886Z,89
2022-10-29T19:52:40.449Z,89
2022-10-29T19:53:44.941Z,89
2022-10-29T19:54:54.149Z,89
2022-10-29T19:55:59.053Z,89
2022-10-29T19:57:03.220Z,89
2022-10-29T19:58:07.677Z,89
2022-10-29T19:59:12.045Z,89
2022-10-29T20:00:17.617Z,89
2022-10-29T20:01:21.250Z,89
2022-10-29T20:02:25.415Z,89
2022-10-29T20:03:29.765Z,89
2022-10-29T20:04:33.938Z,89
2022-10-29T20:05:40.214Z,89
2022-10-29T20:06:44.917Z,89
2022-10-29T20:07:49.619Z,89
2022-10-29T20:08:54.401Z,89
2022-10-29T20:09:58.885Z,89
2022-10-29T20:11:05.121Z,89
2022-10-29T20:12:09.764Z,89
2022-10-29T20:13:14.381Z,89
2022-10-29T20:14:18.873Z,89
2022-10-29T20:15:24.048Z,89
2022-10-29T20:16:31.127Z,89
2022-10-29T20:17:36.397Z,89
2022-10-29T20:18:40.863Z,89
2022-10-29T20:19:45.714Z,89
2022-10-29T20:20:50.168Z,89
2022-10-29T20:21:56.185Z,89
2022-10-29T20:23:01.232Z,89
2022-10-29T20:24:05.265Z,89
2022-10-29T20:25:09.751Z,89
2022-10-29T20:26:14.416Z,89
2022-10-29T20:27:21.108Z,89
2022-10-29T20:28:25.437Z,89
2022-10-29T20:29:29.922Z,89
2022-10-29T20:30:37.216Z,89
2022-10-29T20:31:41.802Z,89
2022-10-29T20:32:47.128Z,89
2022-10-29T20:33:51.428Z,89
2022-10-29T20:34:56.918Z,89
2022-10-29T20:36:01.548Z,89
2022-10-29T20:37:06.406Z,89
2022-10-29T20:38:14.213Z,89
2022-10-29T20:39:18.956Z,89
2022-10-29T20:40:23.514Z,89
2022-10-29T20:41:29.065Z,89
2022-10-29T20:42:33.332Z,89
2022-10-29T20:43:38.149Z,89
2022-10-29T20:44:42.672Z,89
2022-10-29T20:45:47.042Z,89
2022-10-29T20:46:51.919Z,89
2022-10-29T20:47:57.070Z,89
2022-10-29T20:49:17.728Z,89
2022-10-29T20:50:22.264Z,89
2022-10-29T20:51:26.805Z,89
2022-10-29T20:52:31.452Z,89
2022-10-29T20:53:38.968Z,90
2022-10-29T20:54:44.145Z,89
2022-10-29T20:55:48.484Z,89
2022-10-29T20:56:52.965Z,89
2022-10-29T20:57:57.768Z,89
2022-10-29T20:59:11.546Z,90
2022-10-29T21:00:15.749Z,90
2022-10-29T21:01:20.858Z,90
2022-10-29T21:02:25.416Z,89
2022-10-29T21:03:30.228Z,89
2022-10-29T21:04:45.347Z,89
2022-10-29T21:05:49.554Z,89
2022-10-29T21:06:54.077Z,89
2022-10-29T21:07:59.160Z,89
2022-10-29T21:09:03.288Z,89
2022-10-29T21:10:09.190Z,89
2022-10-29T21:11:14.019Z,89
2022-10-29T21:12:18.716Z,90
2022-10-29T21:13:23.472Z,90
2022-10-29T21:14:28.071Z,89
2022-10-29T21:15:34.137Z,89
2022-10-29T21:16:38.829Z,89
2022-10-29T21:17:43.452Z,89
2022-10-29T21:18:47.725Z,89
2022-10-29T21:19:52.497Z,89
2022-10-29T21:20:59.153Z,89
2022-10-29T21:22:03.844Z,90
2022-10-29T21:23:08.296Z,89
2022-10-29T21:24:12.888Z,89
2022-10-29T21:25:17.315Z,89
2022-10-29T21:26:22.025Z,89
2022-10-29T21:28:28.581Z,89
2022-10-29T21:29:44.744Z,89
2022-10-29T21:30:48.792Z,89
2022-10-29T21:31:58.425Z,89
2022-10-29T21:33:03.210Z,89
2022-10-29T21:34:07.404Z,88
2022-10-29T21:35:12.083Z,89
2022-10-29T21:36:16.520Z,89
2022-10-29T21:37:21.208Z,89
2022-10-29T21:38:26.301Z,89
2022-10-29T21:39:30.864Z,89
2022-10-29T21:40:36.705Z,88
2022-10-29T21:41:41.153Z,88
2022-10-29T21:42:47.184Z,89
2022-10-29T21:44:53.710Z,89
2022-10-29T21:46:02.187Z,89
2022-10-29T21:47:06.609Z,89
2022-10-29T21:48:11.389Z,89
2022-10-29T21:49:16.624Z,89
2022-10-29T21:50:20.711Z,89
2022-10-29T21:51:25.375Z,89
2022-10-29T21:52:29.911Z,89
2022-10-29T21:53:37.188Z,89
2022-10-29T21:54:41.620Z,90
2022-10-29T21:55:45.728Z,90
2022-10-29T21:56:58.222Z,89
2022-10-29T21:58:02.436Z,90
2022-10-29T21:59:09.169Z,89